| Date | Time | Temp. (oF) | Dew Point (oF) | Rel. Hum. (%) | Press. (in.) | Wind Dir. | Wind Speed (mph) | Hourly Rainfall (in.) |
|
|---|---|---|---|---|---|---|---|---|---|
| 1 | 05/19 | 00:00 | 49 | 49 | 100 | 30.28 | E | 4 | 0.00 |
| 2 | 05/18 | 23:00 | 49 | 48 | 98 | 30.28 | NE | 5 | 0.06 |
| 3 | 05/18 | 22:00 | 53 | 45 | 75 | 30.27 | NNE | 6 | 0.00 |
| 4 | 05/18 | 21:00 | 54 | 47 | 80 | 30.26 | E | 9 | 0.00 |
| 5 | 05/18 | 20:00 | 55 | 50 | 86 | 30.26 | E | 4 | 0.00 |
| 6 | 05/18 | 19:00 | 58 | 49 | 73 | 30.25 | ENE | 14 | 0.00 |
| 7 | 05/18 | 18:00 | 61 | 51 | 72 | 30.22 | E | 12 | 0.00 |
| 8 | 05/18 | 17:00 | 63 | 53 | 72 | 30.21 | NNE | 4 | 0.00 |
| 9 | 05/18 | 16:00 | 64 | 56 | 76 | 30.21 | ESE | 6 | 0.00 |
| 10 | 05/18 | 15:00 | 65 | 57 | 77 | 30.22 | E | 11 | 0.00 |
| 11 | 05/18 | 14:00 | 64 | 58 | 83 | 30.22 | NE | 15 | 0.00 |
| 12 | 05/18 | 13:00 | 63 | 58 | 86 | 30.22 | E | 5 | 0.00 |
| 13 | 05/18 | 12:00 | 65 | 60 | 86 | 30.21 | E | 7 | 0.00 |
| 14 | 05/18 | 11:00 | 67 | 63 | 89 | 30.19 | ENE | 14 | 0.00 |
| 15 | 05/18 | 10:00 | 65 | 63 | 94 | 30.17 | ENE | 4 | 0.00 |
| 16 | 05/18 | 09:00 | 65 | 64 | 100 | 30.14 | E | 6 | 0.00 |
| 17 | miss | miss | miss | miss | miss | miss | miss | miss | |
| 18 | 05/18 | 07:00 | 62 | 62 | 100 | 30.12 | ENE | 3 | 0.00 |
| 19 | 05/18 | 06:00 | 62 | 62 | 100 | 30.10 | N | 2 | 0.00 |
| 20 | 05/18 | 05:00 | 62 | 62 | 100 | 30.09 | NNE | 0 | 0.00 |
| 21 | 05/18 | 04:00 | 62 | 62 | 100 | 30.08 | ENE | 1 | 0.00 |
| 22 | 05/18 | 03:00 | 62 | 62 | 100 | 30.09 | ENE | 2 | 0.00 |
| 23 | 05/18 | 02:00 | 63 | 63 | 100 | 30.09 | ENE | 1 | 0.00 |
| 24 | 05/18 | 01:00 | 63 | 63 | 100 | 30.09 | ENE | 1 | 0.00 |